Time;durP1;ratioP1;P1;durP2;ratioP2;P2;SDS_P1;SDS_P2;PMS_P1;PMS_P2;Temp;Humidity;BMP_temperature;BMP_pressure;BME280_temperature;BME280_humidity;BME280_pressure;Samples;Min_cycle;Max_cycle;Signal;HPM_P1;HPM_P2
2023/04/26 00:00:52;;;;;;;4.63;1.10;;;;;;;;;;5095471;28;20502;-62
2023/04/26 00:03:19;;;;;;;5.73;1.10;;;;;;;;;;5095722;28;20470;-62
2023/04/26 00:05:47;;;;;;;5.20;2.30;;;;;;;;;;5095691;28;20451;-62
2023/04/26 00:08:14;;;;;;;7.77;2.00;;;;;;;;;;5095554;28;20945;-62
2023/04/26 00:10:41;;;;;;;3.00;1.60;;;;;;;;;;5095417;28;20844;-63
2023/04/26 00:13:08;;;;;;;4.40;1.90;;;;;;;;;;5095303;28;20527;-62
2023/04/26 00:15:36;;;;;;;3.60;1.60;;;;;;;;;;5095328;28;20486;-62
2023/04/26 00:18:04;;;;;;;4.37;1.63;;;;;;;;;;5095421;28;20783;-62
2023/04/26 00:20:30;;;;;;;15.37;1.90;;;;;;;;;;5095069;28;20540;-62
2023/04/26 00:22:57;;;;;;;7.70;1.50;;;;;;;;;;5095203;28;20482;-62
2023/04/26 00:25:24;;;;;;;3.67;1.67;;;;;;;;;;5095189;28;20490;-62
2023/04/26 00:27:52;;;;;;;7.47;1.42;;;;;;;;;;5094888;28;20758;-62
2023/04/26 00:30:19;;;;;;;2.10;1.90;;;;;;;;;;5094374;28;20193;-62
2023/04/26 00:32:47;;;;;;;5.70;1.50;;;;;;;;;;5095145;28;20540;-62
2023/04/26 00:35:14;;;;;;;5.10;2.13;;;;;;;;;;5095005;28;20524;-62
2023/04/26 00:37:41;;;;;;;8.93;2.13;;;;;;;;;;5094937;28;20482;-62
2023/04/26 00:40:09;;;;;;;10.63;2.33;;;;;;;;;;5094713;28;20855;-62
2023/04/26 00:42:36;;;;;;;5.10;1.50;;;;;;;;;;5094635;28;20454;-62
2023/04/26 00:45:03;;;;;;;5.00;1.60;;;;;;;;;;5094621;28;20189;-62
2023/04/26 00:47:30;;;;;;;2.60;1.33;;;;;;;;;;5094739;28;20462;-61
2023/04/26 00:49:58;;;;;;;5.07;1.40;;;;;;;;;;5094656;28;20467;-62
2023/04/26 00:52:26;;;;;;;3.20;1.53;;;;;;;;;;5094542;28;20456;-63
2023/04/26 00:54:55;;;;;;;6.10;2.07;;;;;;;;;;5094394;28;20475;-62
2023/04/26 00:57:22;;;;;;;3.40;1.37;;;;;;;;;;5094410;28;20807;-62
2023/04/26 00:59:49;;;;;;;3.40;1.37;;;;;;;;;;5094506;28;20533;-62
2023/04/26 01:02:17;;;;;;;4.13;1.37;;;;;;;;;;5094453;28;20488;-61
2023/04/26 01:04:44;;;;;;;3.47;1.60;;;;;;;;;;5094415;28;20501;-61
2023/04/26 01:07:12;;;;;;;3.00;1.43;;;;;;;;;;5094266;28;20455;-62
2023/04/26 01:09:39;;;;;;;2.07;1.60;;;;;;;;;;5094192;28;20455;-62
2023/04/26 01:12:07;;;;;;;5.43;1.50;;;;;;;;;;5094298;28;20489;-62
2023/04/26 01:14:35;;;;;;;4.23;1.47;;;;;;;;;;5094265;28;20517;-62
2023/04/26 01:17:04;;;;;;;3.30;1.40;;;;;;;;;;5094085;28;20462;-62
2023/04/26 01:19:31;;;;;;;3.07;1.30;;;;;;;;;;5094109;28;20530;-62
2023/04/26 01:21:58;;;;;;;5.25;1.80;;;;;;;;;;5093879;28;20475;-62
2023/04/26 01:24:27;;;;;;;1.80;1.63;;;;;;;;;;5093797;28;20201;-63
2023/04/26 01:26:54;;;;;;;7.57;1.47;;;;;;;;;;5094137;28;20521;-62
2023/04/26 01:29:23;;;;;;;4.40;1.47;;;;;;;;;;5093910;28;20691;-62
2023/04/26 01:31:50;;;;;;;4.77;1.83;;;;;;;;;;5093831;28;20422;-63
2023/04/26 01:34:17;;;;;;;2.60;1.30;;;;;;;;;;5093811;28;20463;-62
2023/04/26 01:36:43;;;;;;;4.63;1.67;;;;;;;;;;5093649;28;20532;-62
2023/04/26 01:39:11;;;;;;;4.63;1.47;;;;;;;;;;5093648;28;20542;-62
2023/04/26 01:41:39;;;;;;;2.00;1.20;;;;;;;;;;5093629;28;20453;-62
2023/04/26 01:44:06;;;;;;;4.43;2.20;;;;;;;;;;5093737;28;20453;-62
2023/04/26 01:46:33;;;;;;;5.40;1.80;;;;;;;;;;5093574;28;20451;-62
2023/04/26 01:49:00;;;;;;;1.80;1.20;;;;;;;;;;5093604;28;20451;-62
2023/04/26 01:51:27;;;;;;;4.70;1.70;;;;;;;;;;5093316;28;20185;-62
2023/04/26 01:53:53;;;;;;;6.43;2.00;;;;;;;;;;5093369;28;20532;-62
2023/04/26 01:56:21;;;;;;;3.40;2.00;;;;;;;;;;5093380;28;20427;-62
2023/04/26 01:58:49;;;;;;;2.55;1.30;;;;;;;;;;5093442;28;20561;-63
2023/04/26 02:01:16;;;;;;;5.70;1.60;;;;;;;;;;5093403;28;20217;-62
2023/04/26 02:03:43;;;;;;;5.83;1.60;;;;;;;;;;5093268;28;20454;-62
2023/04/26 02:06:10;;;;;;;9.30;1.40;;;;;;;;;;5093047;28;20969;-62
2023/04/26 02:08:37;;;;;;;10.02;1.50;;;;;;;;;;5093394;28;20540;-61
2023/04/26 02:11:04;;;;;;;6.97;1.70;;;;;;;;;;5093567;28;20619;-62
2023/04/26 02:13:31;;;;;;;10.53;1.97;;;;;;;;;;5093255;28;20504;-62
2023/04/26 02:16:00;;;;;;;3.47;1.27;;;;;;;;;;5093286;28;20455;-62
2023/04/26 02:18:28;;;;;;;4.90;1.50;;;;;;;;;;5093160;28;20449;-62
2023/04/26 02:20:55;;;;;;;6.63;1.83;;;;;;;;;;5093190;28;20482;-62
2023/04/26 02:23:23;;;;;;;4.00;1.63;;;;;;;;;;5093145;28;20450;-62
2023/04/26 02:25:50;;;;;;;5.73;1.90;;;;;;;;;;5092969;28;20950;-62
2023/04/26 02:28:16;;;;;;;3.40;1.37;;;;;;;;;;5093097;28;20451;-63
2023/04/26 02:30:43;;;;;;;2.78;1.40;;;;;;;;;;5093050;28;20486;-62
2023/04/26 02:33:12;;;;;;;8.03;1.90;;;;;;;;;;5093002;28;20189;-62
2023/04/26 02:35:39;;;;;;;6.43;2.13;;;;;;;;;;5093116;28;20453;-62
2023/04/26 02:38:06;;;;;;;4.85;2.38;;;;;;;;;;5093059;28;20193;-62
2023/04/26 02:40:33;;;;;;;5.17;1.30;;;;;;;;;;5092982;28;20280;-62
2023/04/26 02:43:00;;;;;;;9.43;1.90;;;;;;;;;;5092784;28;20840;-62
2023/04/26 02:45:27;;;;;;;3.47;1.80;;;;;;;;;;5092819;28;20447;-62
2023/04/26 02:47:54;;;;;;;6.28;2.00;;;;;;;;;;5092715;28;20197;-62
2023/04/26 02:50:22;;;;;;;2.85;1.70;;;;;;;;;;5093009;28;20276;-62
2023/04/26 02:52:49;;;;;;;4.20;2.65;;;;;;;;;;5095308;28;20189;-62
2023/04/26 02:55:17;;;;;;;5.15;1.63;;;;;;;;;;5096942;28;20246;-62
2023/04/26 02:57:44;;;;;;;5.65;2.60;;;;;;;;;;5096853;28;20196;-62
2023/04/26 03:00:12;;;;;;;5.35;2.40;;;;;;;;;;5096699;28;20602;-62
2023/04/26 03:02:39;;;;;;;5.57;1.65;;;;;;;;;;5096824;28;20227;-62
2023/04/26 03:05:08;;;;;;;9.47;2.00;;;;;;;;;;5096960;28;20189;-62
2023/04/26 03:07:36;;;;;;;2.47;1.50;;;;;;;;;;5096619;28;20481;-62
2023/04/26 03:10:04;;;;;;;3.13;1.55;;;;;;;;;;5096520;28;20453;-62
2023/04/26 03:12:30;;;;;;;3.28;1.55;;;;;;;;;;5096454;28;20200;-62
2023/04/26 03:14:58;;;;;;;9.57;1.45;;;;;;;;;;5096423;28;20196;-62
2023/04/26 03:17:25;;;;;;;5.53;2.00;;;;;;;;;;5096615;28;20201;-61
2023/04/26 03:19:52;;;;;;;4.45;1.20;;;;;;;;;;5096495;28;20189;-62
2023/04/26 03:22:20;;;;;;;7.37;1.70;;;;;;;;;;5096249;28;20297;-62
2023/04/26 03:24:48;;;;;;;8.40;1.83;;;;;;;;;;5096424;28;20520;-62
2023/04/26 03:27:15;;;;;;;4.97;1.70;;;;;;;;;;5096123;28;20218;-62
2023/04/26 03:29:42;;;;;;;5.53;2.17;;;;;;;;;;5096334;28;20468;-62
2023/04/26 03:32:09;;;;;;;5.57;2.00;;;;;;;;;;5096272;28;20185;-62
2023/04/26 03:34:36;;;;;;;5.50;2.07;;;;;;;;;;5096106;28;20547;-62
2023/04/26 03:37:03;;;;;;;4.95;1.65;;;;;;;;;;5096187;28;20859;-62
2023/04/26 03:39:30;;;;;;;4.10;1.40;;;;;;;;;;5095950;28;20221;-61
2023/04/26 03:41:58;;;;;;;5.87;1.33;;;;;;;;;;5095743;28;20907;-62
2023/04/26 03:44:25;;;;;;;2.28;1.88;;;;;;;;;;5095975;28;20453;-62
2023/04/26 03:46:52;;;;;;;4.18;1.70;;;;;;;;;;5095994;28;20225;-61
2023/04/26 03:49:19;;;;;;;6.45;2.58;;;;;;;;;;5095809;28;20283;-61
2023/04/26 03:51:46;;;;;;;2.83;1.35;;;;;;;;;;5095745;28;20199;-62
2023/04/26 03:54:14;;;;;;;6.33;1.70;;;;;;;;;;5095435;28;20252;-62
2023/04/26 03:56:41;;;;;;;4.85;1.50;;;;;;;;;;5095498;28;20451;-62
2023/04/26 03:59:10;;;;;;;4.20;1.90;;;;;;;;;;5095692;28;20189;-62
2023/04/26 04:01:37;;;;;;;5.30;1.73;;;;;;;;;;5095537;28;20482;-61
2023/04/26 04:04:03;;;;;;;3.33;1.50;;;;;;;;;;5094331;28;20422;-61
2023/04/26 04:06:31;;;;;;;5.10;1.83;;;;;;;;;;5095408;28;20814;-62
2023/04/26 04:08:58;;;;;;;3.20;1.40;;;;;;;;;;5095285;28;20458;-62
2023/04/26 04:11:25;;;;;;;6.32;2.17;;;;;;;;;;5095549;28;20521;-61
2023/04/26 04:13:52;;;;;;;5.10;2.13;;;;;;;;;;5095329;28;20195;-61
2023/04/26 04:16:20;;;;;;;3.13;1.77;;;;;;;;;;5095249;28;20447;-62
2023/04/26 04:18:47;;;;;;;8.02;2.47;;;;;;;;;;5095490;28;20193;-62
2023/04/26 04:21:14;;;;;;;8.57;2.00;;;;;;;;;;5095019;28;20193;-62
2023/04/26 04:23:42;;;;;;;6.97;1.80;;;;;;;;;;5094869;28;20483;-62
2023/04/26 04:26:11;;;;;;;7.95;2.05;;;;;;;;;;5095116;28;20496;-62
2023/04/26 04:28:38;;;;;;;5.23;1.57;;;;;;;;;;5095157;28;20517;-62
2023/04/26 04:31:06;;;;;;;3.70;1.92;;;;;;;;;;5094914;28;20789;-61
2023/04/26 04:33:35;;;;;;;4.00;1.52;;;;;;;;;;5094714;28;20659;-62
2023/04/26 04:36:02;;;;;;;4.77;1.90;;;;;;;;;;5094720;28;20284;-62
2023/04/26 04:38:29;;;;;;;6.32;1.70;;;;;;;;;;5094953;28;20451;-61
2023/04/26 04:40:56;;;;;;;3.37;1.40;;;;;;;;;;5094838;28;20190;-62
2023/04/26 04:43:24;;;;;;;5.00;1.80;;;;;;;;;;5094755;28;20490;-62
2023/04/26 04:45:51;;;;;;;8.77;2.10;;;;;;;;;;5094654;28;20575;-62
2023/04/26 04:48:19;;;;;;;4.45;1.70;;;;;;;;;;5094647;28;21014;-62
2023/04/26 04:50:47;;;;;;;3.17;1.75;;;;;;;;;;5094459;28;20284;-62
2023/04/26 04:53:15;;;;;;;6.95;2.38;;;;;;;;;;5094353;28;20225;-62
2023/04/26 04:55:42;;;;;;;6.53;2.30;;;;;;;;;;5094465;28;20196;-62
2023/04/26 04:58:09;;;;;;;5.33;1.90;;;;;;;;;;5094414;28;20295;-62
2023/04/26 05:00:36;;;;;;;2.90;1.70;;;;;;;;;;5094407;28;20447;-62
2023/04/26 05:03:03;;;;;;;3.80;2.10;;;;;;;;;;5093964;28;20475;-62
2023/04/26 05:05:31;;;;;;;4.47;1.88;;;;;;;;;;5094233;28;20447;-63
2023/04/26 05:07:59;;;;;;;7.30;2.90;;;;;;;;;;5094176;28;20185;-63
2023/04/26 05:10:26;;;;;;;7.13;2.67;;;;;;;;;;5094157;28;20472;-63
2023/04/26 05:12:53;;;;;;;3.03;1.83;;;;;;;;;;5094079;28;20558;-63
2023/04/26 05:15:20;;;;;;;2.50;1.77;;;;;;;;;;5093758;28;20924;-63
2023/04/26 05:17:48;;;;;;;3.70;2.07;;;;;;;;;;5093918;28;20787;-63
2023/04/26 05:20:15;;;;;;;8.50;2.33;;;;;;;;;;5094055;28;20516;-63
2023/04/26 05:22:42;;;;;;;8.33;2.90;;;;;;;;;;5093731;28;20482;-62
2023/04/26 05:25:12;;;;;;;5.50;2.23;;;;;;;;;;5093886;28;20450;-62
2023/04/26 05:27:39;;;;;;;5.43;2.77;;;;;;;;;;5093717;28;20913;-62
2023/04/26 05:30:07;;;;;;;3.90;2.40;;;;;;;;;;5093590;28;20512;-63
2023/04/26 05:32:34;;;;;;;3.77;1.97;;;;;;;;;;5093720;28;20430;-63
2023/04/26 05:35:01;;;;;;;10.00;2.50;;;;;;;;;;5093734;28;20494;-63
2023/04/26 05:37:28;;;;;;;11.67;1.90;;;;;;;;;;5093690;28;20784;-63
2023/04/26 05:39:55;;;;;;;6.73;2.10;;;;;;;;;;5093822;28;20447;-63
2023/04/26 05:42:23;;;;;;;9.43;2.60;;;;;;;;;;5093257;28;20561;-63
2023/04/26 05:44:50;;;;;;;9.50;2.10;;;;;;;;;;5093580;28;20447;-63
2023/04/26 05:47:17;;;;;;;5.33;2.83;;;;;;;;;;5093660;28;20554;-63
2023/04/26 05:49:44;;;;;;;8.43;2.33;;;;;;;;;;5093432;28;20457;-63
2023/04/26 05:52:11;;;;;;;2.53;1.60;;;;;;;;;;5093525;28;20455;-63
2023/04/26 05:54:38;;;;;;;7.53;2.30;;;;;;;;;;5092990;28;20603;-63
2023/04/26 05:57:05;;;;;;;2.90;1.67;;;;;;;;;;5093249;28;20857;-63
2023/04/26 05:59:37;;;;;;;7.70;1.90;;;;;;;;;;5093251;28;20533;-63
2023/04/26 06:02:04;;;;;;;7.67;2.73;;;;;;;;;;5093294;28;20445;-63
2023/04/26 06:04:31;;;;;;;8.10;2.13;;;;;;;;;;5093180;28;20458;-63
2023/04/26 06:06:59;;;;;;;5.50;2.20;;;;;;;;;;5093339;28;20537;-63
2023/04/26 06:09:26;;;;;;;8.03;2.17;;;;;;;;;;5093202;28;20475;-63
2023/04/26 06:11:53;;;;;;;3.37;1.50;;;;;;;;;;5093003;28;20872;-63
2023/04/26 06:14:20;;;;;;;7.50;1.80;;;;;;;;;;5093312;28;20483;-63
2023/04/26 06:16:48;;;;;;;4.53;1.80;;;;;;;;;;5093145;28;20856;-63
2023/04/26 06:19:15;;;;;;;6.27;2.00;;;;;;;;;;5093156;28;20657;-63
2023/04/26 06:21:42;;;;;;;5.77;1.90;;;;;;;;;;5092974;28;20450;-63
2023/04/26 06:24:09;;;;;;;3.00;1.70;;;;;;;;;;5092750;28;20542;-63
2023/04/26 06:26:36;;;;;;;2.23;1.83;;;;;;;;;;5092154;28;21037;-63
2023/04/26 06:29:03;;;;;;;12.40;1.53;;;;;;;;;;5093018;28;20958;-63
2023/04/26 06:31:30;;;;;;;6.90;1.80;;;;;;;;;;5092962;28;21002;-63
2023/04/26 06:33:58;;;;;;;6.70;1.50;;;;;;;;;;5092980;28;20497;-63
2023/04/26 06:36:27;;;;;;;6.87;1.67;;;;;;;;;;5092752;28;20870;-63
2023/04/26 06:38:54;;;;;;;6.33;1.87;;;;;;;;;;5092784;28;20453;-63
2023/04/26 06:41:21;;;;;;;3.33;1.90;;;;;;;;;;5092988;28;20446;-63
2023/04/26 06:43:48;;;;;;;3.13;1.40;;;;;;;;;;5092870;28;20478;-63
2023/04/26 06:46:15;;;;;;;2.60;1.47;;;;;;;;;;5092922;28;20443;-63
2023/04/26 06:48:42;;;;;;;5.83;1.60;;;;;;;;;;5092800;28;20443;-63
2023/04/26 06:51:10;;;;;;;6.33;1.60;;;;;;;;;;5092795;28;20447;-63
2023/04/26 06:53:38;;;;;;;3.37;1.60;;;;;;;;;;5092326;28;20483;-63
2023/04/26 06:56:05;;;;;;;7.67;1.60;;;;;;;;;;5092831;28;20447;-63
2023/04/26 06:58:32;;;;;;;5.60;1.60;;;;;;;;;;5092775;28;20471;-63
2023/04/26 07:00:59;;;;;;;3.07;1.40;;;;;;;;;;5092602;28;20450;-63
2023/04/26 07:03:26;;;;;;;7.27;1.97;;;;;;;;;;5092452;28;20820;-63
2023/04/26 07:05:53;;;;;;;4.23;1.87;;;;;;;;;;5092586;28;20520;-63
2023/04/26 07:08:21;;;;;;;3.13;1.50;;;;;;;;;;5092535;28;20979;-63
2023/04/26 07:10:48;;;;;;;5.40;1.90;;;;;;;;;;5092504;28;20477;-63
2023/04/26 07:13:15;;;;;;;4.17;1.37;;;;;;;;;;5092552;28;20541;-63
2023/04/26 07:15:42;;;;;;;7.30;1.93;;;;;;;;;;5092497;28;20447;-63
2023/04/26 07:18:09;;;;;;;6.67;1.70;;;;;;;;;;5092668;28;20479;-63
2023/04/26 07:20:36;;;;;;;5.70;1.50;;;;;;;;;;5092091;28;20478;-63
2023/04/26 07:23:03;;;;;;;4.13;1.60;;;;;;;;;;5092424;28;20475;-65
2023/04/26 07:25:31;;;;;;;5.60;1.90;;;;;;;;;;5092377;28;20875;-62
2023/04/26 07:27:58;;;;;;;7.10;1.90;;;;;;;;;;5092364;28;20446;-60
2023/04/26 07:30:26;;;;;;;6.10;1.97;;;;;;;;;;5092260;28;20417;-60
2023/04/26 07:32:53;;;;;;;3.37;1.30;;;;;;;;;;5092249;28;20450;-62
2023/04/26 07:35:20;;;;;;;4.77;1.50;;;;;;;;;;5092245;28;20964;-60
2023/04/26 07:37:47;;;;;;;8.03;2.53;;;;;;;;;;5093207;28;20447;-60
2023/04/26 07:40:14;;;;;;;3.80;1.43;;;;;;;;;;5095953;28;20447;-61
2023/04/26 07:42:42;;;;;;;11.17;2.20;;;;;;;;;;5095844;28;20887;-63
2023/04/26 07:45:10;;;;;;;4.80;2.43;;;;;;;;;;5095884;28;20422;-60
2023/04/26 07:47:37;;;;;;;5.40;3.40;;;;;;;;;;5095692;28;20867;-60
2023/04/26 07:50:04;;;;;;;6.70;2.43;;;;;;;;;;5095884;28;20451;-61
2023/04/26 07:52:31;;;;;;;3.17;1.60;;;;;;;;;;5095650;28;20946;-61
2023/04/26 07:54:58;;;;;;;3.57;1.40;;;;;;;;;;5095541;28;20513;-61
2023/04/26 07:57:25;;;;;;;4.67;1.63;;;;;;;;;;5095507;28;20451;-60
2023/04/26 07:59:53;;;;;;;2.90;1.80;;;;;;;;;;5095538;28;20450;-60
2023/04/26 08:02:20;;;;;;;4.10;1.63;;;;;;;;;;5095459;28;20446;-60
2023/04/26 08:04:48;;;;;;;8.20;2.37;;;;;;;;;;5095499;28;20508;-60
2023/04/26 08:07:15;;;;;;;5.43;2.47;;;;;;;;;;5095425;28;20450;-63
2023/04/26 08:09:43;;;;;;;4.73;1.77;;;;;;;;;;5095307;28;20919;-60
2023/04/26 08:12:10;;;;;;;5.10;1.67;;;;;;;;;;5095358;28;20856;-60
2023/04/26 08:14:37;;;;;;;3.57;1.13;;;;;;;;;;5095330;28;20895;-63
2023/04/26 08:17:05;;;;;;;7.87;1.90;;;;;;;;;;5095334;28;20449;-60
2023/04/26 08:19:33;;;;;;;5.53;1.60;;;;;;;;;;5095208;28;20451;-60
2023/04/26 08:22:00;;;;;;;3.20;1.63;;;;;;;;;;5094986;28;20497;-61
2023/04/26 08:24:27;;;;;;;7.10;1.67;;;;;;;;;;5094947;28;20805;-62
2023/04/26 08:26:54;;;;;;;4.30;1.60;;;;;;;;;;5094943;28;20894;-60
2023/04/26 08:29:22;;;;;;;4.27;1.30;;;;;;;;;;5094816;28;20429;-61
2023/04/26 08:31:49;;;;;;;4.57;1.97;;;;;;;;;;5094906;28;20457;-62
2023/04/26 08:34:17;;;;;;;4.60;1.53;;;;;;;;;;5095022;28;20447;-64
2023/04/26 08:36:45;;;;;;;7.33;1.37;;;;;;;;;;5094979;28;20881;-65
2023/04/26 08:39:12;;;;;;;5.50;1.90;;;;;;;;;;5094766;28;20458;-61
2023/04/26 08:41:42;;;;;;;3.00;1.20;;;;;;;;;;5094714;28;20478;-65
2023/04/26 08:44:09;;;;;;;5.67;1.73;;;;;;;;;;5094820;28;20453;-61
2023/04/26 08:46:40;;;;;;;4.63;1.50;;;;;;;;;;5094575;28;20992;-62
2023/04/26 08:49:14;;;;;;;10.87;2.73;;;;;;;;;;5094261;28;20939;-60
2023/04/26 08:51:43;;;;;;;4.00;1.50;;;;;;;;;;5094396;28;20496;-60
2023/04/26 08:54:11;;;;;;;4.90;1.60;;;;;;;;;;5094189;28;20932;-64
2023/04/26 08:56:39;;;;;;;8.73;2.10;;;;;;;;;;5094297;28;20482;-63
2023/04/26 08:59:06;;;;;;;2.00;1.20;;;;;;;;;;5094540;28;20455;-63
2023/04/26 09:01:33;;;;;;;3.07;1.40;;;;;;;;;;5094355;28;20985;-62
2023/04/26 09:04:01;;;;;;;9.13;2.20;;;;;;;;;;5094193;28;20532;-63
2023/04/26 09:06:30;;;;;;;5.87;2.10;;;;;;;;;;5094155;28;20435;-62
2023/04/26 09:08:59;;;;;;;2.60;1.50;;;;;;;;;;5094009;28;20541;-67
2023/04/26 09:11:26;;;;;;;3.93;1.90;;;;;;;;;;5094102;28;20447;-65
2023/04/26 09:13:53;;;;;;;6.50;1.87;;;;;;;;;;5094067;28;20455;-66
2023/04/26 09:16:19;;;;;;;3.73;1.50;;;;;;;;;;5094095;28;20453;-61
2023/04/26 09:18:51;;;;;;;3.10;1.63;;;;;;;;;;5093923;28;20454;-61
2023/04/26 09:21:19;;;;;;;9.00;1.57;;;;;;;;;;5093650;28;20447;-64
2023/04/26 09:24:00;;;;;;;2.90;1.40;;;;;;;;;;5093942;28;20516;-62
2023/04/26 09:26:27;;;;;;;2.33;1.43;;;;;;;;;;5093902;28;20485;-66
2023/04/26 09:29:09;;;;;;;4.43;2.10;;;;;;;;;;5093594;28;20447;-63
2023/04/26 09:31:37;;;;;;;6.83;2.03;;;;;;;;;;5093588;28;20446;-65
2023/04/26 09:34:04;;;;;;;4.63;1.80;;;;;;;;;;5093426;28;20455;-63
2023/04/26 09:36:31;;;;;;;3.43;1.27;;;;;;;;;;5093584;28;20475;-64
2023/04/26 09:39:00;;;;;;;3.03;1.10;;;;;;;;;;5093583;28;20449;-62
2023/04/26 09:41:42;;;;;;;4.73;1.40;;;;;;;;;;5093490;28;20443;-66
2023/04/26 09:44:21;;;;;;;2.27;1.20;;;;;;;;;;5093240;28;20478;-64
2023/04/26 09:46:58;;;;;;;7.57;1.30;;;;;;;;;;5093557;28;20462;-60
2023/04/26 09:49:26;;;;;;;5.80;1.37;;;;;;;;;;5093219;28;20454;-62
2023/04/26 09:52:11;;;;;;;4.73;1.53;;;;;;;;;;5093373;28;20486;-64
2023/04/26 09:54:46;;;;;;;5.27;1.50;;;;;;;;;;5092979;28;20475;-61
2023/04/26 09:57:14;;;;;;;11.40;1.73;;;;;;;;;;5093355;28;20453;-62
2023/04/26 09:59:42;;;;;;;2.70;1.50;;;;;;;;;;5093388;28;20460;-63
2023/04/26 10:02:11;;;;;;;2.47;1.30;;;;;;;;;;5092183;28;20451;-62
2023/04/26 10:04:38;;;;;;;2.77;1.60;;;;;;;;;;5093113;28;20573;-61
2023/04/26 10:07:06;;;;;;;7.37;1.40;;;;;;;;;;5093037;28;20450;-62
2023/04/26 10:09:33;;;;;;;1.50;1.40;;;;;;;;;;5092982;28;20454;-63
2023/04/26 10:12:02;;;;;;;2.80;1.90;;;;;;;;;;5093251;28;20611;-63
2023/04/26 10:14:29;;;;;;;4.70;1.47;;;;;;;;;;5092917;28;20957;-61
2023/04/26 10:16:57;;;;;;;2.13;1.50;;;;;;;;;;5092988;28;20529;-61
2023/04/26 10:19:24;;;;;;;2.50;1.23;;;;;;;;;;5093000;28;20546;-62
2023/04/26 10:21:52;;;;;;;3.53;1.40;;;;;;;;;;5092869;28;20799;-61
2023/04/26 10:24:19;;;;;;;3.93;1.50;;;;;;;;;;5093105;28;20845;-61
2023/04/26 10:26:50;;;;;;;4.63;1.40;;;;;;;;;;5092756;28;21094;-63
2023/04/26 10:29:19;;;;;;;3.20;1.10;;;;;;;;;;5092787;28;20999;-61
2023/04/26 10:32:05;;;;;;;3.30;1.27;;;;;;;;;;5092749;28;20450;-62
2023/04/26 10:34:33;;;;;;;3.03;1.20;;;;;;;;;;5092817;28;20482;-63
2023/04/26 10:37:10;;;;;;;3.10;1.30;;;;;;;;;;5092624;28;20537;-61
2023/04/26 10:39:37;;;;;;;3.47;1.43;;;;;;;;;;5092562;28;20455;-60
2023/04/26 10:42:24;;;;;;;1.70;1.20;;;;;;;;;;5092647;28;20447;-61
2023/04/26 10:44:52;;;;;;;4.13;1.30;;;;;;;;;;5092576;28;20478;-61
2023/04/26 10:47:23;;;;;;;5.07;1.50;;;;;;;;;;5092736;28;20451;-63
2023/04/26 10:49:51;;;;;;;2.60;1.60;;;;;;;;;;5092715;28;20997;-61
2023/04/26 10:52:20;;;;;;;3.07;1.70;;;;;;;;;;5092393;28;20442;-61
2023/04/26 10:54:47;;;;;;;5.73;1.20;;;;;;;;;;5092278;28;20467;-61
2023/04/26 10:57:15;;;;;;;3.30;1.60;;;;;;;;;;5092553;28;20482;-62
2023/04/26 11:00:15;;;;;;;2.03;1.20;;;;;;;;;;5092784;28;20451;-65
2023/04/26 11:02:46;;;;;;;2.17;1.40;;;;;;;;;;5092485;28;20486;-63
2023/04/26 11:05:33;;;;;;;3.03;1.70;;;;;;;;;;5092414;28;20905;-61
2023/04/26 11:08:04;;;;;;;2.20;1.47;;;;;;;;;;5092401;28;20898;-62
2023/04/26 11:10:31;;;;;;;3.40;2.03;;;;;;;;;;5092625;28;20533;-65
2023/04/26 11:13:02;;;;;;;3.57;1.80;;;;;;;;;;5093494;28;20453;-62
2023/04/26 11:15:31;;;;;;;1.67;1.57;;;;;;;;;;5096274;28;20480;-60
2023/04/26 11:17:58;;;;;;;1.83;1.20;;;;;;;;;;5096302;28;20930;-59
2023/04/26 11:20:30;;;;;;;2.10;1.37;;;;;;;;;;5096180;28;20451;-59
2023/04/26 11:22:57;;;;;;;2.90;1.60;;;;;;;;;;5096362;28;20508;-61
2023/04/26 11:25:26;;;;;;;3.20;1.50;;;;;;;;;;5096085;28;20565;-60
2023/04/26 11:27:57;;;;;;;2.30;1.47;;;;;;;;;;5095886;28;20497;-60
2023/04/26 11:30:24;;;;;;;2.00;1.53;;;;;;;;;;5096110;28;20483;-62
2023/04/26 11:32:52;;;;;;;4.70;1.67;;;;;;;;;;5095816;28;20451;-62
2023/04/26 11:35:21;;;;;;;4.37;1.80;;;;;;;;;;5096125;28;20481;-62
2023/04/26 11:37:50;;;;;;;2.70;1.60;;;;;;;;;;5095861;28;20442;-62
2023/04/26 11:40:17;;;;;;;3.67;1.53;;;;;;;;;;5095633;28;20520;-62
2023/04/26 11:42:45;;;;;;;6.93;2.33;;;;;;;;;;5095823;28;20533;-62
2023/04/26 11:45:12;;;;;;;5.10;1.90;;;;;;;;;;5095570;28;21050;-60
2023/04/26 11:47:39;;;;;;;2.90;1.90;;;;;;;;;;5095452;28;20447;-58
2023/04/26 11:50:09;;;;;;;4.00;1.90;;;;;;;;;;5095605;28;20534;-61
2023/04/26 11:52:36;;;;;;;2.47;1.30;;;;;;;;;;5095392;28;20462;-61
2023/04/26 11:55:05;;;;;;;3.53;2.20;;;;;;;;;;5095152;28;20561;-62
2023/04/26 11:57:32;;;;;;;4.77;1.90;;;;;;;;;;5095199;28;20450;-61
2023/04/26 12:00:09;;;;;;;3.20;1.83;;;;;;;;;;5095332;28;20845;-61
2023/04/26 12:02:36;;;;;;;5.00;2.20;;;;;;;;;;5095589;28;20454;-61
2023/04/26 12:05:03;;;;;;;3.93;2.00;;;;;;;;;;5095035;28;20479;-61
2023/04/26 12:07:36;;;;;;;2.53;1.90;;;;;;;;;;5095382;28;20508;-61
2023/04/26 12:10:14;;;;;;;2.70;1.80;;;;;;;;;;5095290;28;20451;-62
2023/04/26 12:12:44;;;;;;;3.17;1.77;;;;;;;;;;5095347;28;20458;-58
2023/04/26 12:15:11;;;;;;;6.17;2.43;;;;;;;;;;5095284;28;20808;-62
2023/04/26 12:17:38;;;;;;;2.30;1.80;;;;;;;;;;5095264;28;20451;-60
2023/04/26 12:20:09;;;;;;;2.53;1.70;;;;;;;;;;5095047;28;20452;-61
2023/04/26 12:22:38;;;;;;;3.10;1.90;;;;;;;;;;5094750;28;20451;-62
2023/04/26 12:25:05;;;;;;;4.57;2.30;;;;;;;;;;5093953;28;20485;-63
2023/04/26 12:27:32;;;;;;;4.17;2.10;;;;;;;;;;5094768;28;20451;-62
2023/04/26 12:29:59;;;;;;;5.50;2.20;;;;;;;;;;5095174;28;20446;-61
2023/04/26 12:32:26;;;;;;;5.17;2.07;;;;;;;;;;5094880;28;20447;-62
2023/04/26 12:34:53;;;;;;;9.30;2.73;;;;;;;;;;5094819;28;20837;-61
2023/04/26 12:37:20;;;;;;;4.53;1.80;;;;;;;;;;5094604;28;20526;-62
2023/04/26 12:39:48;;;;;;;1.93;1.73;;;;;;;;;;5094854;28;20444;-64
2023/04/26 12:42:15;;;;;;;2.40;2.10;;;;;;;;;;5094708;28;20797;-64
2023/04/26 12:44:42;;;;;;;2.00;1.83;;;;;;;;;;5094551;28;20569;-63
2023/04/26 12:47:09;;;;;;;5.35;2.47;;;;;;;;;;5093436;28;20463;-65
2023/04/26 12:49:36;;;;;;;5.00;2.70;;;;;;;;;;5094374;28;20215;-61
2023/04/26 12:52:03;;;;;;;2.37;2.17;;;;;;;;;;5094668;28;20783;-62
2023/04/26 12:54:30;;;;;;;2.00;1.90;;;;;;;;;;5094163;28;20565;-61
2023/04/26 12:56:58;;;;;;;5.33;2.70;;;;;;;;;;5094380;28;20461;-61
2023/04/26 12:59:25;;;;;;;5.10;2.40;;;;;;;;;;5094527;28;20451;-63
2023/04/26 13:01:52;;;;;;;2.77;2.50;;;;;;;;;;5094155;28;20443;-63
2023/04/26 13:04:19;;;;;;;3.03;1.90;;;;;;;;;;5093824;28;20474;-61
2023/04/26 13:06:46;;;;;;;3.53;2.10;;;;;;;;;;5094203;28;20455;-62
2023/04/26 13:09:13;;;;;;;2.90;2.07;;;;;;;;;;5094328;28;20889;-62
2023/04/26 13:11:40;;;;;;;3.30;2.30;;;;;;;;;;5094178;28;20454;-62
2023/04/26 13:14:09;;;;;;;2.40;1.93;;;;;;;;;;5093893;28;20442;-64
2023/04/26 13:16:41;;;;;;;3.60;1.90;;;;;;;;;;5093971;28;20451;-63
2023/04/26 13:19:08;;;;;;;3.37;2.37;;;;;;;;;;5093859;28;20900;-62
2023/04/26 13:21:35;;;;;;;4.50;2.20;;;;;;;;;;5093832;28;21006;-63
2023/04/26 13:24:01;;;;;;;7.63;2.60;;;;;;;;;;5093589;28;20477;-63
2023/04/26 13:26:28;;;;;;;4.53;2.73;;;;;;;;;;5093748;28;20478;-62
2023/04/26 13:28:56;;;;;;;2.07;1.70;;;;;;;;;;5093458;28;20473;-63
2023/04/26 13:31:24;;;;;;;4.67;1.73;;;;;;;;;;5093646;28;20530;-63
2023/04/26 13:33:51;;;;;;;5.10;2.60;;;;;;;;;;5092720;28;20452;-63
2023/04/26 13:36:18;;;;;;;3.90;1.90;;;;;;;;;;5093299;28;20188;-63
2023/04/26 13:38:45;;;;;;;4.57;2.37;;;;;;;;;;5093672;28;20536;-63
2023/04/26 13:41:13;;;;;;;4.50;1.80;;;;;;;;;;5093567;28;20447;-64
2023/04/26 13:43:40;;;;;;;1.80;1.60;;;;;;;;;;5093941;28;20454;-63
2023/04/26 13:46:07;;;;;;;4.33;2.10;;;;;;;;;;5093359;28;20895;-63
2023/04/26 13:48:35;;;;;;;3.53;2.47;;;;;;;;;;5093645;28;20887;-63
2023/04/26 13:51:02;;;;;;;2.17;1.97;;;;;;;;;;5093594;28;20461;-64
2023/04/26 13:53:29;;;;;;;4.17;2.33;;;;;;;;;;5093370;28;20529;-63
2023/04/26 13:55:56;;;;;;;3.07;1.80;;;;;;;;;;5093351;28;20546;-64
2023/04/26 13:58:23;;;;;;;6.23;2.20;;;;;;;;;;5093147;28;20443;-63
2023/04/26 14:00:51;;;;;;;2.90;2.07;;;;;;;;;;5093009;28;20551;-64
2023/04/26 14:03:18;;;;;;;5.10;2.17;;;;;;;;;;5093318;28;20490;-64
2023/04/26 14:05:46;;;;;;;2.57;1.73;;;;;;;;;;5093248;28;20486;-63
2023/04/26 14:08:13;;;;;;;5.27;2.50;;;;;;;;;;5093018;28;21060;-63
2023/04/26 14:10:40;;;;;;;2.90;1.80;;;;;;;;;;5093090;28;20446;-64
2023/04/26 14:13:07;;;;;;;3.20;1.93;;;;;;;;;;5092998;28;20900;-63
2023/04/26 14:15:34;;;;;;;3.77;1.83;;;;;;;;;;5092988;28;20958;-64
2023/04/26 14:18:00;;;;;;;1.90;1.80;;;;;;;;;;5093252;28;20447;-64
2023/04/26 14:20:27;;;;;;;9.03;2.30;;;;;;;;;;5092975;28;20478;-64
2023/04/26 14:22:56;;;;;;;2.63;2.10;;;;;;;;;;5093068;28;20453;-64
2023/04/26 14:25:23;;;;;;;3.50;2.13;;;;;;;;;;5092897;28;20474;-64
2023/04/26 14:27:50;;;;;;;2.30;2.10;;;;;;;;;;5092945;28;20473;-64
2023/04/26 14:30:17;;;;;;;4.63;2.27;;;;;;;;;;5092951;28;20447;-63
2023/04/26 14:32:44;;;;;;;12.47;3.40;;;;;;;;;;5092951;28;20534;-63
2023/04/26 14:35:11;;;;;;;2.80;2.00;;;;;;;;;;5092871;28;20458;-63
2023/04/26 14:37:38;;;;;;;3.67;1.90;;;;;;;;;;5092873;28;20455;-64
2023/04/26 14:40:07;;;;;;;4.83;2.60;;;;;;;;;;5092750;28;20446;-63
2023/04/26 14:42:35;;;;;;;3.00;2.20;;;;;;;;;;5092955;28;20457;-64
2023/04/26 14:45:02;;;;;;;2.27;2.03;;;;;;;;;;5092650;28;20501;-64
2023/04/26 14:47:29;;;;;;;2.50;2.20;;;;;;;;;;5093116;28;20446;-63